createdAt,value
2023-01-31T00:00:32.166Z,988.416244144
2023-01-31T00:01:32.144Z,988.517835508
2023-01-31T00:02:32.171Z,988.6194268719998
2023-01-31T00:03:32.115Z,988.517835508
2023-01-31T00:04:32.076Z,988.517835508
2023-01-31T00:05:32.110Z,988.416244144
2023-01-31T00:06:32.099Z,988.8226096
2023-01-31T00:07:32.079Z,988.721018236
2023-01-31T00:08:32.109Z,988.8226096
2023-01-31T00:09:32.237Z,988.517835508
2023-01-31T00:10:32.141Z,988.8226096
2023-01-31T00:11:32.118Z,988.6194268719998
2023-01-31T00:12:32.100Z,988.721018236
2023-01-31T00:13:32.140Z,988.6194268719998
2023-01-31T00:14:32.128Z,988.721018236
2023-01-31T00:15:32.129Z,988.721018236
2023-01-31T00:16:32.194Z,988.8226096
2023-01-31T00:17:32.122Z,988.6194268719998
2023-01-31T00:18:32.116Z,988.6194268719998
2023-01-31T00:19:32.077Z,988.721018236
2023-01-31T00:20:32.105Z,988.9242009639999
2023-01-31T00:21:32.144Z,988.6194268719998
2023-01-31T00:22:32.105Z,988.8226096
2023-01-31T00:23:32.111Z,988.8226096
2023-01-31T00:24:32.125Z,988.6194268719998
2023-01-31T00:25:32.116Z,988.721018236
2023-01-31T00:26:32.243Z,988.9242009639999
2023-01-31T00:27:32.103Z,988.9242009639999
2023-01-31T00:28:32.119Z,988.8226096
2023-01-31T00:29:32.133Z,989.025792328
2023-01-31T00:30:32.134Z,989.127383692
2023-01-31T00:31:32.349Z,989.025792328
2023-01-31T00:32:32.098Z,988.8226096
2023-01-31T00:33:32.120Z,989.025792328
2023-01-31T00:34:32.082Z,989.127383692
2023-01-31T00:35:32.123Z,989.025792328
2023-01-31T00:36:32.125Z,989.2289750559999
2023-01-31T00:37:32.129Z,989.025792328
2023-01-31T00:38:32.100Z,989.025792328
2023-01-31T00:39:32.218Z,989.127383692
2023-01-31T00:40:32.061Z,988.9242009639999
2023-01-31T00:41:32.130Z,989.127383692
2023-01-31T00:42:32.177Z,989.127383692
2023-01-31T00:43:32.100Z,989.127383692
2023-01-31T00:44:32.077Z,989.2289750559999
2023-01-31T00:45:32.109Z,989.025792328
2023-01-31T00:46:32.135Z,989.025792328
2023-01-31T00:47:32.557Z,989.025792328
2023-01-31T00:48:32.070Z,989.127383692
2023-01-31T00:49:32.142Z,989.2289750559999
2023-01-31T00:50:32.113Z,989.127383692
2023-01-31T00:51:32.103Z,989.025792328
2023-01-31T00:52:32.128Z,989.2289750559999
2023-01-31T00:53:32.113Z,989.127383692
2023-01-31T00:54:32.104Z,989.2289750559999
2023-01-31T00:55:32.114Z,989.2289750559999
2023-01-31T00:56:32.211Z,989.2289750559999
2023-01-31T00:57:32.130Z,989.127383692
2023-01-31T00:58:32.085Z,989.127383692
2023-01-31T00:59:32.116Z,989.432157784
2023-01-31T01:00:32.090Z,989.432157784
2023-01-31T01:01:32.105Z,989.33056642
2023-01-31T01:02:32.117Z,989.33056642
2023-01-31T01:03:32.104Z,989.127383692
2023-01-31T01:04:32.078Z,989.127383692
2023-01-31T01:05:32.115Z,989.5337491480001
2023-01-31T01:06:32.662Z,989.432157784
2023-01-31T01:07:32.986Z,989.33056642
2023-01-31T01:08:32.598Z,989.635340512
2023-01-31T01:09:32.481Z,989.33056642
2023-01-31T01:10:32.268Z,989.5337491480001
2023-01-31T01:11:32.253Z,989.635340512
2023-01-31T01:12:32.129Z,989.635340512
2023-01-31T01:13:32.126Z,989.5337491480001
2023-01-31T01:14:32.170Z,989.5337491480001
2023-01-31T01:15:33.140Z,989.432157784
2023-01-31T01:16:32.102Z,989.635340512
2023-01-31T01:17:32.668Z,989.635340512
2023-01-31T01:18:32.421Z,989.5337491480001
2023-01-31T01:19:32.514Z,989.635340512
2023-01-31T01:20:32.309Z,989.635340512
2023-01-31T01:21:32.397Z,989.5337491480001
2023-01-31T01:22:32.224Z,989.736931876
2023-01-31T01:23:32.164Z,989.635340512
2023-01-31T01:24:32.100Z,989.432157784
2023-01-31T01:25:32.121Z,989.8385232400001
2023-01-31T01:26:32.716Z,989.635340512
2023-01-31T01:27:32.687Z,989.8385232400001
2023-01-31T01:28:32.406Z,989.635340512
2023-01-31T01:29:32.380Z,989.736931876
2023-01-31T01:30:32.216Z,989.8385232400001
2023-01-31T01:31:32.637Z,989.736931876
2023-01-31T01:32:32.103Z,989.8385232400001
2023-01-31T01:33:32.098Z,989.8385232400001
2023-01-31T01:34:32.082Z,989.635340512
2023-01-31T01:35:32.100Z,989.8385232400001
2023-01-31T01:36:32.461Z,989.8385232400001
2023-01-31T01:37:32.535Z,989.8385232400001
2023-01-31T01:38:32.466Z,989.8385232400001
2023-01-31T01:39:32.119Z,989.736931876
2023-01-31T01:40:32.311Z,989.8385232400001
2023-01-31T01:41:32.241Z,989.906250816
2023-01-31T01:42:32.239Z,989.635340512
2023-01-31T01:43:32.218Z,989.8385232400001
2023-01-31T01:44:32.195Z,989.8385232400001
2023-01-31T01:45:32.904Z,989.736931876
2023-01-31T01:46:32.837Z,990.1094335439999
2023-01-31T01:47:32.658Z,989.906250816
2023-01-31T01:48:32.386Z,989.8385232400001
2023-01-31T01:49:32.367Z,990.1094335439999
2023-01-31T01:50:32.232Z,989.8385232400001
2023-01-31T01:51:33.143Z,990.1094335439999
2023-01-31T01:52:44.306Z,990.211024908
2023-01-31T01:53:48.323Z,990.211024908
2023-01-31T01:54:52.312Z,990.1094335439999
2023-01-31T01:55:56.209Z,989.906250816
2023-01-31T01:57:00.183Z,990.1094335439999
2023-01-31T01:58:04.181Z,990.1094335439999
2023-01-31T01:59:08.169Z,990.312616272
2023-01-31T02:00:12.203Z,990.211024908
2023-01-31T02:01:16.207Z,990.1094335439999
2023-01-31T02:02:20.250Z,990.00784218
2023-01-31T02:03:24.180Z,990.00784218
2023-01-31T02:04:28.241Z,990.1094335439999
2023-01-31T02:05:32.059Z,990.211024908
2023-01-31T02:06:32.074Z,990.00784218
2023-01-31T02:07:32.089Z,990.312616272
2023-01-31T02:08:32.089Z,990.211024908
2023-01-31T02:09:32.107Z,990.1094335439999
2023-01-31T02:10:32.084Z,990.312616272
2023-01-31T02:11:32.122Z,990.312616272
2023-01-31T02:12:32.097Z,990.312616272
2023-01-31T02:13:32.073Z,990.211024908
2023-01-31T02:14:32.081Z,990.00784218
2023-01-31T02:15:32.056Z,990.312616272
2023-01-31T02:16:32.117Z,990.515799
2023-01-31T02:17:32.083Z,990.312616272
2023-01-31T02:18:32.070Z,990.515799
2023-01-31T02:19:32.082Z,990.4142076359999
2023-01-31T02:20:32.104Z,990.312616272
2023-01-31T02:21:32.093Z,990.312616272
2023-01-31T02:22:32.078Z,990.4142076359999
2023-01-31T02:23:32.068Z,990.312616272
2023-01-31T02:24:32.117Z,990.515799
2023-01-31T02:25:32.054Z,990.617390364
2023-01-31T02:26:32.237Z,990.515799
2023-01-31T02:27:32.071Z,990.617390364
2023-01-31T02:28:32.098Z,990.617390364
2023-01-31T02:29:32.071Z,990.617390364
2023-01-31T02:30:32.163Z,990.7189817279999
2023-01-31T02:31:32.127Z,990.515799
2023-01-31T02:32:32.100Z,990.617390364
2023-01-31T02:33:32.075Z,990.7189817279999
2023-01-31T02:34:32.079Z,990.7189817279999
2023-01-31T02:35:32.079Z,990.7189817279999
2023-01-31T02:36:32.103Z,990.617390364
2023-01-31T02:37:32.071Z,990.617390364
2023-01-31T02:38:32.090Z,990.617390364
2023-01-31T02:39:32.078Z,990.617390364
2023-01-31T02:40:32.104Z,990.820573092
2023-01-31T02:41:32.081Z,990.617390364
2023-01-31T02:42:32.092Z,990.922164456
2023-01-31T02:43:32.069Z,990.820573092
2023-01-31T02:44:32.071Z,990.617390364
2023-01-31T02:45:32.066Z,990.7189817279999
2023-01-31T02:46:39.159Z,990.617390364
2023-01-31T02:47:32.078Z,990.617390364
2023-01-31T02:48:32.121Z,990.7189817279999
2023-01-31T02:49:32.053Z,990.820573092
2023-01-31T02:50:32.116Z,990.922164456
2023-01-31T02:51:32.075Z,990.4142076359999
2023-01-31T02:52:32.110Z,990.820573092
2023-01-31T02:53:32.066Z,990.515799
2023-01-31T02:54:32.093Z,990.7189817279999
2023-01-31T02:55:32.061Z,990.7189817279999
2023-01-31T02:56:32.100Z,990.7189817279999
2023-01-31T02:57:32.060Z,990.617390364
2023-01-31T02:58:32.078Z,990.515799
2023-01-31T02:59:32.107Z,990.7189817279999
2023-01-31T03:00:32.092Z,990.617390364
2023-01-31T03:01:32.128Z,990.617390364
2023-01-31T03:02:32.163Z,990.617390364
2023-01-31T03:03:32.104Z,990.617390364
2023-01-31T03:04:32.114Z,990.7189817279999
2023-01-31T03:05:32.083Z,990.617390364
2023-01-31T03:06:32.181Z,990.515799
2023-01-31T03:07:32.098Z,990.7189817279999
2023-01-31T03:08:32.108Z,990.820573092
2023-01-31T03:09:32.056Z,990.820573092
2023-01-31T03:10:32.742Z,990.7189817279999
2023-01-31T03:11:32.082Z,990.7189817279999
2023-01-31T03:12:32.177Z,990.922164456
2023-01-31T03:13:32.072Z,990.7189817279999
2023-01-31T03:14:32.859Z,990.922164456
2023-01-31T03:15:32.059Z,990.922164456
2023-01-31T03:16:32.939Z,991.0237558200001
2023-01-31T03:17:32.090Z,990.922164456
2023-01-31T03:18:32.093Z,990.820573092
2023-01-31T03:19:32.870Z,991.0237558200001
2023-01-31T03:20:32.730Z,990.820573092
2023-01-31T03:21:32.482Z,990.820573092
2023-01-31T03:22:32.367Z,991.0237558200001
2023-01-31T03:23:32.076Z,990.820573092
2023-01-31T03:24:32.102Z,990.922164456
2023-01-31T03:25:32.735Z,990.922164456
2023-01-31T03:26:32.806Z,990.922164456
2023-01-31T03:27:32.608Z,990.820573092
2023-01-31T03:28:32.665Z,990.922164456
2023-01-31T03:29:32.686Z,991.0237558200001
2023-01-31T03:30:32.705Z,991.0237558200001
2023-01-31T03:31:32.794Z,991.226938548
2023-01-31T03:32:32.615Z,991.0237558200001
2023-01-31T03:33:32.679Z,991.0237558200001
2023-01-31T03:34:32.579Z,991.125347184
2023-01-31T03:35:32.611Z,991.0237558200001
2023-01-31T03:36:32.614Z,991.0237558200001
2023-01-31T03:37:32.501Z,990.922164456
2023-01-31T03:38:32.643Z,991.3285299120001
2023-01-31T03:39:32.588Z,991.125347184
2023-01-31T03:40:32.190Z,991.0237558200001
2023-01-31T03:41:32.572Z,991.125347184
2023-01-31T03:42:32.579Z,991.226938548
2023-01-31T03:43:32.529Z,991.125347184
2023-01-31T03:44:32.459Z,991.226938548
2023-01-31T03:45:32.578Z,990.922164456
2023-01-31T03:46:32.571Z,991.125347184
2023-01-31T03:47:32.537Z,991.125347184
2023-01-31T03:48:32.609Z,991.226938548
2023-01-31T03:49:32.416Z,991.226938548
2023-01-31T03:50:32.534Z,991.125347184
2023-01-31T03:51:32.468Z,991.125347184
2023-01-31T03:52:32.481Z,991.0237558200001
2023-01-31T03:53:32.595Z,991.125347184
2023-01-31T03:54:32.597Z,991.0237558200001
2023-01-31T03:55:32.471Z,990.922164456
2023-01-31T03:56:32.557Z,991.430121276
2023-01-31T03:57:32.472Z,991.226938548
2023-01-31T03:58:32.414Z,991.0237558200001
2023-01-31T03:59:32.550Z,991.226938548
2023-01-31T04:00:32.313Z,991.125347184
2023-01-31T04:01:32.563Z,991.125347184
2023-01-31T04:02:32.595Z,990.922164456
2023-01-31T04:03:32.388Z,991.430121276
2023-01-31T04:04:32.270Z,991.226938548
2023-01-31T04:05:32.484Z,991.0237558200001
2023-01-31T04:06:32.249Z,991.3285299120001
2023-01-31T04:07:32.478Z,991.125347184
2023-01-31T04:08:32.349Z,991.3285299120001
2023-01-31T04:09:32.201Z,991.226938548
2023-01-31T04:10:32.314Z,991.226938548
2023-01-31T04:11:32.180Z,991.53171264
2023-01-31T04:12:32.157Z,991.430121276
2023-01-31T04:13:32.270Z,991.53171264
2023-01-31T04:14:32.242Z,991.226938548
2023-01-31T04:15:32.212Z,991.53171264
2023-01-31T04:16:32.198Z,991.3285299120001
2023-01-31T04:17:32.218Z,991.430121276
2023-01-31T04:18:32.154Z,991.430121276
2023-01-31T04:19:32.167Z,991.430121276
2023-01-31T04:20:32.098Z,991.430121276
2023-01-31T04:21:32.200Z,991.3285299120001
2023-01-31T04:22:32.100Z,991.430121276
2023-01-31T04:23:32.270Z,991.430121276
2023-01-31T04:24:32.093Z,991.53171264
2023-01-31T04:25:33.505Z,991.226938548
2023-01-31T04:26:32.295Z,991.430121276
2023-01-31T04:27:32.099Z,991.3285299120001
2023-01-31T04:28:32.164Z,991.430121276
2023-01-31T04:29:32.055Z,991.53171264
2023-01-31T04:30:32.151Z,991.53171264
2023-01-31T04:31:32.532Z,991.53171264
2023-01-31T04:32:32.140Z,991.734895368
2023-01-31T04:33:32.097Z,991.430121276
2023-01-31T04:34:32.065Z,991.430121276
2023-01-31T04:35:32.127Z,991.53171264
2023-01-31T04:36:32.109Z,991.6333040040001
2023-01-31T04:37:32.069Z,991.53171264
2023-01-31T04:38:33.092Z,991.53171264
2023-01-31T04:39:32.075Z,991.53171264
2023-01-31T04:40:32.073Z,991.53171264
2023-01-31T04:41:32.149Z,991.6333040040001
2023-01-31T04:42:32.119Z,991.53171264
2023-01-31T04:43:32.104Z,991.53171264
2023-01-31T04:44:32.100Z,991.430121276
2023-01-31T04:45:32.070Z,991.734895368
2023-01-31T04:46:32.172Z,991.6333040040001
2023-01-31T04:47:32.067Z,991.53171264
2023-01-31T04:48:32.073Z,991.430121276
2023-01-31T04:49:32.066Z,991.734895368
2023-01-31T04:50:32.073Z,991.836486732
2023-01-31T04:51:32.076Z,991.6333040040001
2023-01-31T04:52:32.114Z,991.6333040040001
2023-01-31T04:53:32.072Z,991.53171264
2023-01-31T04:54:32.909Z,991.430121276
2023-01-31T04:55:32.113Z,991.734895368
2023-01-31T04:56:32.080Z,991.53171264
2023-01-31T04:57:32.065Z,991.53171264
2023-01-31T04:58:39.300Z,991.53171264
2023-01-31T04:59:32.499Z,991.3285299120001
2023-01-31T05:00:32.102Z,991.430121276
2023-01-31T05:01:32.088Z,991.53171264
2023-01-31T05:02:32.226Z,991.430121276
2023-01-31T05:03:32.074Z,991.430121276
2023-01-31T05:04:32.084Z,991.53171264
2023-01-31T05:05:33.826Z,991.6333040040001
2023-01-31T05:06:32.063Z,991.6333040040001
2023-01-31T05:07:32.072Z,991.6333040040001
2023-01-31T05:08:32.110Z,991.53171264
2023-01-31T05:09:32.051Z,991.734895368
2023-01-31T05:10:32.592Z,991.53171264
2023-01-31T05:11:32.032Z,991.53171264
2023-01-31T05:12:32.714Z,991.6333040040001
2023-01-31T05:13:32.727Z,991.6333040040001
2023-01-31T05:14:32.550Z,991.53171264
2023-01-31T05:15:32.552Z,991.53171264
2023-01-31T05:16:32.641Z,991.734895368
2023-01-31T05:17:32.560Z,991.734895368
2023-01-31T05:18:32.704Z,991.53171264
2023-01-31T05:19:32.591Z,991.734895368
2023-01-31T05:20:32.630Z,991.53171264
2023-01-31T05:21:32.603Z,991.430121276
2023-01-31T05:22:32.501Z,991.6333040040001
2023-01-31T05:23:32.533Z,991.53171264
2023-01-31T05:24:32.652Z,991.734895368
2023-01-31T05:25:32.453Z,991.6333040040001
2023-01-31T05:26:32.487Z,991.734895368
2023-01-31T05:27:32.072Z,991.6333040040001
2023-01-31T05:28:32.645Z,991.9380780960001
2023-01-31T05:29:32.484Z,991.6333040040001
2023-01-31T05:30:32.500Z,991.734895368
2023-01-31T05:31:32.555Z,991.734895368
2023-01-31T05:32:32.385Z,991.836486732
2023-01-31T05:33:32.670Z,991.6333040040001
2023-01-31T05:34:32.542Z,991.9380780960001
2023-01-31T05:35:32.396Z,991.734895368
2023-01-31T05:36:32.401Z,991.836486732
2023-01-31T05:37:32.323Z,991.836486732
2023-01-31T05:38:32.098Z,991.6333040040001
2023-01-31T05:39:32.374Z,991.734895368
2023-01-31T05:40:32.359Z,991.836486732
2023-01-31T05:41:32.293Z,991.836486732
2023-01-31T05:42:32.379Z,991.734895368
2023-01-31T05:43:32.488Z,991.734895368
2023-01-31T05:44:32.179Z,991.9380780960001
2023-01-31T05:45:32.632Z,991.734895368
2023-01-31T05:46:32.384Z,991.9380780960001
2023-01-31T05:47:32.285Z,991.9380780960001
2023-01-31T05:48:32.027Z,991.836486732
2023-01-31T05:49:32.717Z,991.9380780960001
2023-01-31T05:50:32.271Z,991.6333040040001
2023-01-31T05:51:32.389Z,991.836486732
2023-01-31T05:52:32.461Z,991.734895368
2023-01-31T05:53:32.435Z,991.734895368
2023-01-31T05:54:32.635Z,991.836486732
2023-01-31T05:55:32.345Z,991.9380780960001
2023-01-31T05:56:32.372Z,991.836486732
2023-01-31T05:57:32.236Z,991.9380780960001
2023-01-31T05:58:32.210Z,991.734895368
2023-01-31T05:59:32.340Z,992.03966946
2023-01-31T06:00:32.243Z,991.6333040040001
2023-01-31T06:01:32.196Z,991.9380780960001
2023-01-31T06:02:32.364Z,991.9380780960001
2023-01-31T06:03:32.247Z,991.836486732
2023-01-31T06:04:32.178Z,991.9380780960001
2023-01-31T06:05:32.088Z,991.836486732
2023-01-31T06:06:32.143Z,992.03966946
2023-01-31T06:07:32.168Z,992.1073970360001
2023-01-31T06:08:32.255Z,992.2089884
2023-01-31T06:09:32.134Z,992.4121711280001
2023-01-31T06:10:32.059Z,992.310579764
2023-01-31T06:11:32.058Z,992.1073970360001
2023-01-31T06:12:32.126Z,992.1073970360001
2023-01-31T06:13:32.129Z,991.836486732
2023-01-31T06:14:32.058Z,992.1073970360001
2023-01-31T06:15:32.230Z,992.1073970360001
2023-01-31T06:16:32.127Z,992.2089884
2023-01-31T06:17:32.052Z,992.1073970360001
2023-01-31T06:18:32.078Z,992.1073970360001
2023-01-31T06:19:32.064Z,991.9380780960001
2023-01-31T06:20:32.034Z,992.03966946
2023-01-31T06:21:32.120Z,992.1073970360001
2023-01-31T06:22:32.083Z,991.836486732
2023-01-31T06:23:32.065Z,992.03966946
2023-01-31T06:24:32.112Z,992.03966946
2023-01-31T06:25:32.156Z,991.9380780960001
2023-01-31T06:26:32.184Z,991.9380780960001
2023-01-31T06:27:32.123Z,991.836486732
2023-01-31T06:28:32.080Z,992.1073970360001
2023-01-31T06:29:32.051Z,992.03966946
2023-01-31T06:30:32.243Z,992.2089884
2023-01-31T06:31:32.154Z,992.2089884
2023-01-31T06:32:32.252Z,991.9380780960001
2023-01-31T06:33:44.715Z,992.1073970360001
2023-01-31T06:34:32.054Z,991.9380780960001
2023-01-31T06:35:32.049Z,991.9380780960001
2023-01-31T06:36:32.055Z,992.03966946
2023-01-31T06:37:32.026Z,992.03966946
2023-01-31T06:38:32.085Z,991.9380780960001
2023-01-31T06:39:32.056Z,991.9380780960001
2023-01-31T06:40:32.086Z,991.836486732
2023-01-31T06:41:32.081Z,992.1073970360001
2023-01-31T06:42:32.123Z,992.1073970360001
2023-01-31T06:43:32.057Z,992.1073970360001
2023-01-31T06:44:32.066Z,992.1073970360001
2023-01-31T06:45:32.036Z,992.03966946
2023-01-31T06:46:32.063Z,992.2089884
2023-01-31T06:47:32.642Z,992.03966946
2023-01-31T06:48:32.052Z,991.9380780960001
2023-01-31T06:49:32.071Z,992.03966946
2023-01-31T06:50:32.118Z,991.9380780960001
2023-01-31T06:51:32.027Z,991.9380780960001
2023-01-31T06:52:32.075Z,992.1073970360001
2023-01-31T06:53:32.727Z,992.1073970360001
2023-01-31T06:54:32.558Z,992.03966946
2023-01-31T06:55:32.040Z,992.03966946
2023-01-31T06:56:32.656Z,992.03966946
2023-01-31T06:57:32.604Z,992.4121711280001
2023-01-31T06:58:32.531Z,992.03966946
2023-01-31T06:59:32.709Z,992.03966946
2023-01-31T07:00:32.709Z,992.03966946
2023-01-31T07:01:32.740Z,992.03966946
2023-01-31T07:02:32.505Z,992.1073970360001
2023-01-31T07:03:32.617Z,992.1073970360001
2023-01-31T07:04:32.740Z,992.03966946
2023-01-31T07:05:32.329Z,992.1073970360001
2023-01-31T07:06:32.583Z,991.9380780960001
2023-01-31T07:07:32.390Z,992.1073970360001
2023-01-31T07:08:34.889Z,992.2089884
2023-01-31T07:09:32.305Z,992.310579764
2023-01-31T07:10:32.546Z,992.4121711280001
2023-01-31T07:11:32.592Z,992.4121711280001
2023-01-31T07:12:32.473Z,992.2089884
2023-01-31T07:13:32.521Z,992.1073970360001
2023-01-31T07:14:32.508Z,992.1073970360001
2023-01-31T07:15:32.574Z,992.310579764
2023-01-31T07:16:32.402Z,992.1073970360001
2023-01-31T07:17:32.391Z,992.4121711280001
2023-01-31T07:18:32.500Z,992.310579764
2023-01-31T07:19:32.056Z,992.310579764
2023-01-31T07:20:32.342Z,992.2089884
2023-01-31T07:21:32.469Z,992.4121711280001
2023-01-31T07:22:32.360Z,992.310579764
2023-01-31T07:23:32.483Z,992.4121711280001
2023-01-31T07:24:32.402Z,992.4121711280001
2023-01-31T07:25:32.592Z,992.310579764
2023-01-31T07:26:32.423Z,992.4121711280001
2023-01-31T07:27:32.374Z,992.4121711280001
2023-01-31T07:28:32.329Z,992.4121711280001
2023-01-31T07:29:32.499Z,992.4121711280001
2023-01-31T07:30:32.166Z,992.4121711280001
2023-01-31T07:31:32.495Z,992.615353856
2023-01-31T07:32:32.361Z,992.310579764
2023-01-31T07:33:32.282Z,992.4121711280001
2023-01-31T07:34:32.353Z,992.4121711280001
2023-01-31T07:35:32.247Z,992.310579764
2023-01-31T07:36:32.381Z,992.2089884
2023-01-31T07:37:32.254Z,992.513762492
2023-01-31T07:38:32.416Z,992.4121711280001
2023-01-31T07:39:32.368Z,992.4121711280001
2023-01-31T07:40:32.145Z,992.615353856
2023-01-31T07:41:32.245Z,992.310579764
2023-01-31T07:42:32.256Z,992.7169452200001
2023-01-31T07:43:32.161Z,992.1073970360001
2023-01-31T07:44:32.167Z,992.513762492
2023-01-31T07:45:32.227Z,992.4121711280001
2023-01-31T07:46:32.298Z,992.4121711280001
2023-01-31T07:47:32.062Z,992.4121711280001
2023-01-31T07:48:32.059Z,992.513762492
2023-01-31T07:49:32.080Z,992.310579764
2023-01-31T07:50:32.259Z,992.4121711280001
2023-01-31T07:51:32.097Z,992.513762492
2023-01-31T07:52:32.141Z,992.513762492
2023-01-31T07:53:32.044Z,992.615353856
2023-01-31T07:54:32.146Z,992.615353856
2023-01-31T07:55:32.103Z,992.310579764
2023-01-31T07:56:32.267Z,992.513762492
2023-01-31T07:57:32.216Z,992.615353856
2023-01-31T07:58:32.064Z,992.513762492
2023-01-31T07:59:32.122Z,992.513762492
2023-01-31T08:00:32.191Z,992.7169452200001
2023-01-31T08:01:32.021Z,992.513762492
2023-01-31T08:02:32.034Z,992.615353856
2023-01-31T08:03:32.097Z,992.513762492
2023-01-31T08:04:32.220Z,992.310579764
2023-01-31T08:05:32.041Z,992.4121711280001
2023-01-31T08:06:32.091Z,992.310579764
2023-01-31T08:07:32.058Z,992.4121711280001
2023-01-31T08:08:32.755Z,992.4121711280001
2023-01-31T08:09:32.200Z,992.310579764
2023-01-31T08:10:32.060Z,992.310579764
2023-01-31T08:11:32.034Z,992.4121711280001
2023-01-31T08:12:32.060Z,992.4121711280001
2023-01-31T08:13:32.010Z,992.4121711280001
2023-01-31T08:14:32.048Z,992.513762492
2023-01-31T08:15:32.025Z,992.513762492
2023-01-31T08:16:32.057Z,992.310579764
2023-01-31T08:17:32.168Z,992.615353856
2023-01-31T08:18:32.109Z,992.7169452200001
2023-01-31T08:19:32.054Z,992.615353856
2023-01-31T08:20:32.063Z,992.513762492
2023-01-31T08:21:32.105Z,992.615353856
2023-01-31T08:22:32.044Z,992.513762492
2023-01-31T08:23:32.180Z,992.615353856
2023-01-31T08:24:32.019Z,992.513762492
2023-01-31T08:25:32.380Z,992.513762492
2023-01-31T08:26:32.073Z,992.310579764
2023-01-31T08:27:32.072Z,992.310579764
2023-01-31T08:28:32.024Z,992.4121711280001
2023-01-31T08:29:32.047Z,992.4121711280001
2023-01-31T08:30:32.761Z,992.310579764
2023-01-31T08:31:32.715Z,992.513762492
2023-01-31T08:32:32.126Z,992.310579764
2023-01-31T08:33:32.643Z,992.310579764
2023-01-31T08:34:32.039Z,992.513762492
2023-01-31T08:35:32.047Z,992.513762492
2023-01-31T08:36:32.238Z,992.4121711280001
2023-01-31T08:37:32.037Z,992.4121711280001
2023-01-31T08:38:32.593Z,992.4121711280001
2023-01-31T08:39:32.328Z,992.513762492
2023-01-31T08:40:32.678Z,992.615353856
2023-01-31T08:41:32.607Z,992.513762492
2023-01-31T08:42:32.653Z,992.4121711280001
2023-01-31T08:43:37.280Z,992.4121711280001
2023-01-31T08:44:32.588Z,992.4121711280001
2023-01-31T08:45:32.516Z,992.4121711280001
2023-01-31T08:46:32.449Z,992.4121711280001
2023-01-31T08:47:32.609Z,992.310579764
2023-01-31T08:48:32.546Z,992.4121711280001
2023-01-31T08:49:32.594Z,992.615353856
2023-01-31T08:50:32.773Z,992.615353856
2023-01-31T08:51:32.505Z,992.513762492
2023-01-31T08:52:32.055Z,992.4121711280001
2023-01-31T08:53:32.256Z,992.310579764
2023-01-31T08:54:32.523Z,992.1073970360001
2023-01-31T08:55:32.604Z,992.4121711280001
2023-01-31T08:56:32.503Z,992.513762492
2023-01-31T08:57:32.431Z,992.513762492
2023-01-31T08:58:32.380Z,992.513762492
2023-01-31T08:59:32.548Z,992.2089884
2023-01-31T09:00:32.482Z,992.4121711280001
2023-01-31T09:01:32.401Z,992.513762492
2023-01-31T09:02:32.454Z,992.513762492
2023-01-31T09:03:32.383Z,992.513762492
2023-01-31T09:04:32.431Z,992.513762492
2023-01-31T09:05:32.106Z,992.513762492
2023-01-31T09:06:32.418Z,992.513762492
2023-01-31T09:07:32.427Z,992.513762492
2023-01-31T09:08:32.486Z,992.615353856
2023-01-31T09:09:32.982Z,992.4121711280001
2023-01-31T09:10:32.469Z,992.615353856
2023-01-31T09:11:32.123Z,992.513762492
2023-01-31T09:12:32.069Z,992.615353856
2023-01-31T09:13:32.430Z,992.513762492
2023-01-31T09:14:32.366Z,992.615353856
2023-01-31T09:15:32.535Z,992.4121711280001
2023-01-31T09:16:32.447Z,992.310579764
2023-01-31T09:17:32.286Z,992.513762492
2023-01-31T09:18:32.208Z,992.615353856
2023-01-31T09:19:32.417Z,992.4121711280001
2023-01-31T09:20:32.198Z,992.2089884
2023-01-31T09:21:32.441Z,992.4121711280001
2023-01-31T09:22:32.368Z,992.4121711280001
2023-01-31T09:23:32.230Z,992.4121711280001
2023-01-31T09:24:32.258Z,992.310579764
2023-01-31T09:25:44.908Z,992.513762492
2023-01-31T09:26:32.336Z,992.4121711280001
2023-01-31T09:27:32.238Z,992.4121711280001
2023-01-31T09:28:32.106Z,992.513762492
2023-01-31T09:29:32.395Z,992.4121711280001
2023-01-31T09:30:32.260Z,992.513762492
2023-01-31T09:31:32.311Z,992.513762492
2023-01-31T09:32:32.074Z,992.2089884
2023-01-31T09:33:32.188Z,992.310579764
2023-01-31T09:34:32.183Z,992.310579764
2023-01-31T09:35:32.191Z,992.310579764
2023-01-31T09:36:32.102Z,992.4121711280001
2023-01-31T09:37:32.288Z,992.310579764
2023-01-31T09:38:32.057Z,992.4121711280001
2023-01-31T09:39:32.038Z,992.4121711280001
2023-01-31T09:40:32.103Z,992.310579764
2023-01-31T09:41:32.144Z,992.310579764
2023-01-31T09:42:32.129Z,992.2089884
2023-01-31T09:43:32.364Z,992.1073970360001
2023-01-31T09:44:32.012Z,992.4121711280001
2023-01-31T09:45:32.110Z,992.4121711280001
2023-01-31T09:46:32.147Z,992.310579764
2023-01-31T09:47:32.325Z,992.03966946
2023-01-31T09:48:32.028Z,992.2089884
2023-01-31T09:49:32.067Z,992.2089884
2023-01-31T09:50:32.071Z,992.2089884
2023-01-31T09:51:32.049Z,992.310579764
2023-01-31T09:52:32.217Z,992.4121711280001
2023-01-31T09:53:32.055Z,992.310579764
2023-01-31T09:54:32.082Z,992.03966946
2023-01-31T09:55:32.097Z,992.1073970360001
2023-01-31T09:56:32.061Z,992.2089884